Time;durP1;ratioP1;P1;durP2;ratioP2;P2;SDS_P1;SDS_P2;PMS_P1;PMS_P2;Temp;Humidity;BMP_temperature;BMP_pressure;BME280_temperature;BME280_humidity;BME280_pressure;Samples;Min_cycle;Max_cycle;Signal;HPM_P1;HPM_P2
2023/10/08 00:00:45;;;;;;;;;;;;;;;16.95;100.00;100524.28;4929441;29;19923;-88
2023/10/08 00:03:11;;;;;;;;;;;;;;;16.94;100.00;100532.44;4925318;29;20026;-89
2023/10/08 00:05:37;;;;;;;;;;;;;;;16.93;100.00;100530.75;4927325;29;20017;-89
2023/10/08 00:08:04;;;;;;;;;;;;;;;16.95;100.00;100528.78;4923183;29;19931;-89
2023/10/08 00:10:34;;;;;;;;;;;;;;;16.71;100.00;100530.31;4925735;29;20090;-89
2023/10/08 00:12:59;;;;;;;;;;;;;;;16.65;100.00;100522.97;4927204;29;20273;-89
2023/10/08 00:15:25;;;;;;;;;;;;;;;16.68;100.00;100511.97;4926932;29;19934;-88
2023/10/08 00:17:54;;;;;;;;;;;;;;;16.66;100.00;100524.63;4923809;29;19934;-89
2023/10/08 00:20:28;;;;;;;;;;;;;;;16.65;100.00;100522.97;4925378;29;19930;-89
2023/10/08 00:22:55;;;;;;;;;;;;;;;16.63;100.00;100518.75;4927040;29;19942;-88
2023/10/08 00:25:20;;;;;;;;;;;;;;;16.59;100.00;100523.59;4934949;29;19927;-88
2023/10/08 00:27:49;;;;;;;;;;;;;;;16.62;100.00;100522.41;4934797;29;19978;-90
2023/10/08 00:30:17;;;;;;;;;;;;;;;16.67;100.00;100520.94;4920165;29;19919;-89
2023/10/08 00:32:44;;;;;;;;;;;;;;;16.64;100.00;100523.94;4935442;29;20375;-89
2023/10/08 00:35:13;;;;;;;;;;;;;;;16.65;100.00;100524.78;4915509;29;19958;-89
2023/10/08 00:37:41;;;;;;;;;;;;;;;16.62;100.00;100517.94;4937324;29;19930;-89
2023/10/08 00:40:21;;;;;;;;;;;;;;;16.69;100.00;100521.63;4937193;29;19922;-88
2023/10/08 00:42:46;;;;;;;;;;;;;;;16.71;100.00;100522.31;4933721;29;20435;-91
2023/10/08 00:45:16;;;;;;;;;;;;;;;16.75;100.00;100518.34;4895211;29;20014;-88
2023/10/08 00:47:45;;;;;;;;;;;;;;;16.70;100.00;100504.66;4938773;29;19923;-88
2023/10/08 00:50:20;;;;;;;;;;;;;;;16.61;100.00;100504.78;4922432;29;19934;-90
2023/10/08 00:52:59;;;;;;;;;;;;;;;16.57;100.00;100501.56;4908435;29;20391;-92
2023/10/08 00:55:28;;;;;;;;;;;;;;;16.58;100.00;100489.91;4905815;29;19998;-90
2023/10/08 00:57:57;;;;;;;;;;;;;;;16.55;100.00;100490.22;4906092;29;19923;-88
2023/10/08 01:00:31;;;;;;;;;;;;;;;16.34;100.00;100492.44;4909888;29;19978;-89
2023/10/08 01:03:00;;;;;;;;;;;;;;;16.29;100.00;100489.41;4901779;29;19935;-89
2023/10/08 01:05:42;;;;;;;;;;;;;;;16.30;100.00;100491.06;4904898;29;19934;-88
2023/10/08 01:08:08;;;;;;;;;;;;;;;16.35;100.00;100488.78;4925966;29;19927;-88
2023/10/08 01:10:35;;;;;;;;;;;;;;;16.29;100.00;100484.06;4911875;29;20062;-89
2023/10/08 01:15:29;;;;;;;;;;;;;;;16.25;100.00;100477.41;4910417;29;20013;-89
2023/10/08 01:18:00;;;;;;;;;;;;;;;16.26;100.00;100479.88;4931493;29;19923;-90
2023/10/08 01:20:34;;;;;;;;;;;;;;;16.29;100.00;100468.94;4929253;29;19970;-91
2023/10/08 01:23:10;;;;;;;;;;;;;;;16.14;100.00;100475.00;4905110;29;20434;-89
2023/10/08 01:25:36;;;;;;;;;;;;;;;16.03;100.00;100470.75;4928920;29;19929;-89
2023/10/08 01:28:14;;;;;;;;;;;;;;;16.02;100.00;100476.25;4925524;29;19923;-88
2023/10/08 01:30:41;;;;;;;;;;;;;;;16.06;100.00;100482.91;4926266;29;20014;-89
2023/10/08 01:33:11;;;;;;;;;;;;;;;16.15;100.00;100481.97;4926936;29;19923;-87
2023/10/08 01:35:37;;;;;;;;;;;;;;;16.22;100.00;100478.53;4929361;29;19967;-89
2023/10/08 01:38:03;;;;;;;;;;;;;;;16.15;100.00;100476.66;4925747;29;19929;-88
2023/10/08 01:40:30;;;;;;;;;;;;;;;16.09;100.00;100472.78;4899830;29;19923;-88
2023/10/08 01:42:59;;;;;;;;;;;;;;;15.93;100.00;100478.00;4922904;29;20402;-89
2023/10/08 01:45:25;;;;;;;;;;;;;;;15.93;100.00;100473.50;4906277;29;19955;-89
2023/10/08 01:47:52;;;;;;;;;;;;;;;15.67;100.00;100472.63;4920614;29;20117;-90
2023/10/08 01:50:29;;;;;;;;;;;;;;;15.77;100.00;100472.56;4928064;29;19938;-90
2023/10/08 01:52:54;;;;;;;;;;;;;;;15.82;100.00;100476.41;4918848;29;19946;-89
2023/10/08 01:55:21;;;;;;;;;;;;;;;15.84;100.00;100474.44;4906231;29;20269;-89
2023/10/08 01:57:47;;;;;;;;;;;;;;;15.88;100.00;100475.81;4920469;29;19926;-89
2023/10/08 02:00:19;;;;;;;;;;;;;;;15.81;100.00;100468.59;4902678;29;19930;-89
2023/10/08 02:02:54;;;;;;;;;;;;;;;15.75;100.00;100467.38;4924693;29;19987;-89
2023/10/08 02:05:20;;;;;;;;;;;;;;;15.80;100.00;100475.72;4908844;29;20354;-90
2023/10/08 02:07:46;;;;;;;;;;;;;;;15.84;100.00;100474.44;4907011;29;19926;-89
2023/10/08 02:10:13;;;;;;;;;;;;;;;15.83;100.00;100472.78;4923071;29;20284;-89
2023/10/08 02:12:39;;;;;;;;;;;;;;;15.75;100.00;100471.84;4900354;29;19923;-89
2023/10/08 02:15:06;;;;;;;;;;;;;;;15.64;100.00;100470.28;4924229;29;20339;-90
2023/10/08 02:17:32;;;;;;;;;;;;;;;15.58;100.00;100468.22;4900421;29;19919;-89
2023/10/08 02:19:57;;;;;;;;;;;;;;;15.52;100.00;100463.50;4926507;29;20439;-89
2023/10/08 02:22:23;;;;;;;;;;;;;;;15.59;100.00;100464.56;4907126;29;20009;-89
2023/10/08 02:24:50;;;;;;;;;;;;;;;15.56;100.00;100462.22;4923234;29;19923;-89
2023/10/08 02:27:16;;;;;;;;;;;;;;;15.49;100.00;100458.47;4926789;29;19980;-90
2023/10/08 02:29:42;;;;;;;;;;;;;;;15.53;100.00;100459.88;4924956;29;19931;-90
2023/10/08 02:32:07;;;;;;;;;;;;;;;15.54;100.00;100456.22;4905973;29;19930;-90
2023/10/08 02:34:33;;;;;;;;;;;;;;;15.59;100.00;100453.94;4922646;29;19938;-90
2023/10/08 02:36:59;;;;;;;;;;;;;;;15.62;100.00;100461.59;4922467;29;20010;-89
2023/10/08 02:39:25;;;;;;;;;;;;;;;15.65;100.00;100461.31;4921838;29;19923;-89
2023/10/08 02:41:51;;;;;;;;;;;;;;;15.65;100.00;100458.66;4900501;29;19927;-89
2023/10/08 02:44:17;;;;;;;;;;;;;;;15.65;100.00;100452.50;4921716;29;20303;-88
2023/10/08 02:46:48;;;;;;;;;;;;;;;15.68;100.00;100453.00;4920116;29;19930;-89
2023/10/08 02:49:19;;;;;;;;;;;;;;;15.63;100.00;100444.66;4921513;29;20287;-89
2023/10/08 02:51:45;;;;;;;;;;;;;;;15.61;100.00;100449.28;4925618;29;19923;-89
2023/10/08 02:54:17;;;;;;;;;;;;;;;15.55;100.00;100449.94;4919055;29;19991;-87
2023/10/08 02:56:51;;;;;;;;;;;;;;;15.56;100.00;100448.91;4901568;29;19923;-89
2023/10/08 02:59:16;;;;;;;;;;;;;;;15.51;100.00;100456.47;4934913;29;19933;-89
2023/10/08 03:01:42;;;;;;;;;;;;;;;15.48;100.00;100452.31;4904782;29;19923;-89
2023/10/08 03:04:19;;;;;;;;;;;;;;;15.44;100.00;100450.09;4908269;29;20009;-89
2023/10/08 03:06:49;;;;;;;;;;;;;;;15.44;100.00;100450.09;4924546;29;19958;-88
2023/10/08 03:09:26;;;;;;;;;;;;;;;15.43;100.00;100446.59;4909161;29;19929;-90
2023/10/08 03:11:52;;;;;;;;;;;;;;;15.33;100.00;100452.97;4924860;29;19931;-89
2023/10/08 03:14:26;;;;;;;;;;;;;;;15.35;100.00;100451.03;4906729;29;19932;-89
2023/10/08 03:16:52;;;;;;;;;;;;;;;15.15;100.00;100453.81;4907177;29;19925;-89
2023/10/08 03:19:19;;;;;;;;;;;;;;;15.20;100.00;100449.88;4901889;29;19931;-89
2023/10/08 03:21:50;;;;;;;;;;;;;;;15.15;100.00;100448.50;4909931;29;19923;-90
2023/10/08 03:24:37;;;;;;;;;;;;;;;15.14;100.00;100449.47;4923613;29;19930;-90
2023/10/08 03:27:15;;;;;;;;;;;;;;;15.19;100.00;100453.53;4926594;29;20363;-90
2023/10/08 03:29:41;;;;;;;;;;;;;;;15.08;100.00;100455.38;4910776;29;20403;-90
2023/10/08 03:32:13;;;;;;;;;;;;;;;15.16;100.00;100459.97;4910888;29;19923;-90
2023/10/08 03:34:42;;;;;;;;;;;;;;;15.20;100.00;100463.19;4912098;29;19922;-90
2023/10/08 03:37:08;;;;;;;;;;;;;;;15.26;100.00;100467.84;4926805;29;19930;-90
2023/10/08 03:40:24;;;;;;;;;;;;;;;15.30;100.00;100461.28;4912415;29;19923;-90
2023/10/08 03:42:20;;;;;;;;;;;;;;;15.33;100.00;100466.28;4918773;29;19927;-89
2023/10/08 03:44:50;;;;;;;;;;;;;;;15.33;100.00;100459.13;4911656;29;19923;-91
2023/10/08 03:47:18;;;;;;;;;;;;;;;15.37;100.00;100457.88;4923835;29;19930;-90
2023/10/08 03:49:45;;;;;;;;;;;;;;;15.37;100.00;100457.88;4919485;29;19923;-91
2023/10/08 03:52:12;;;;;;;;;;;;;;;15.42;100.00;100460.06;4924189;29;19927;-89
2023/10/08 03:54:42;;;;;;;;;;;;;;;15.39;100.00;100463.00;4924239;29;20336;-90
2023/10/08 03:57:14;;;;;;;;;;;;;;;15.37;100.00;100467.66;4926476;29;19922;-90
2023/10/08 03:59:40;;;;;;;;;;;;;;;15.30;100.00;100469.25;4923532;29;20296;-89
2023/10/08 04:02:22;;;;;;;;;;;;;;;15.26;100.00;100474.03;4924059;29;19930;-90
2023/10/08 04:04:51;;;;;;;;;;;;;;;15.24;100.00;100469.84;4926415;29;19975;-87
2023/10/08 04:12:34;;;;;;;;;;;;;;;15.21;100.00;100464.81;4922934;29;19931;-89
2023/10/08 04:15:07;;;;;;;;;;;;;;;15.23;100.00;100462.84;4919168;29;20386;-89
2023/10/08 04:17:45;;;;;;;;;;;;;;;15.24;100.00;100457.41;4918742;29;20075;-89
2023/10/08 04:22:55;;;;;;;;;;;;;;;15.19;100.00;100461.50;4918231;29;19930;-88
2023/10/08 04:25:20;;;;;;;;;;;;;;;15.24;100.00;100467.19;4922870;29;19931;-88
2023/10/08 04:27:49;;;;;;;;;;;;;;;15.28;100.00;100461.41;4923085;29;19923;-87
2023/10/08 04:30:15;;;;;;;;;;;;;;;15.29;100.00;100454.28;4923481;29;19919;-87
2023/10/08 04:32:41;;;;;;;;;;;;;;;15.21;100.00;100459.50;4927973;29;20356;-89
2023/10/08 04:35:08;;;;;;;;;;;;;;;15.12;100.00;100462.09;4926913;29;19947;-89
2023/10/08 04:37:33;;;;;;;;;;;;;;;15.12;100.00;100466.56;4923433;29;19931;-88
2023/10/08 04:39:59;;;;;;;;;;;;;;;15.03;100.00;100455.00;4926913;29;19923;-89
2023/10/08 04:42:27;;;;;;;;;;;;;;;14.95;100.00;100465.56;4930466;29;19930;-88
2023/10/08 04:44:54;;;;;;;;;;;;;;;14.93;100.00;100464.88;4926574;29;19978;-89
2023/10/08 04:47:31;;;;;;;;;;;;;;;14.79;100.00;100465.34;4927550;29;20412;-89
2023/10/08 04:49:57;;;;;;;;;;;;;;;14.68;100.00;100468.19;4928352;29;19923;-90
2023/10/08 04:52:25;;;;;;;;;;;;;;;14.65;100.00;100471.16;4928777;29;19930;-88
2023/10/08 04:54:54;;;;;;;;;;;;;;;14.49;100.00;100463.00;4586292;29;10000180;-87
2023/10/08 04:57:22;;;;;;;;;;;;;;;14.40;100.00;100463.84;4925964;29;19930;-89
2023/10/08 04:59:50;;;;;;;;;;;;;;;14.42;100.00;100461.91;4920443;29;19923;-89
2023/10/08 05:02:19;;;;;;;;;;;;;;;14.50;100.00;100462.00;4918775;29;19926;-87
2023/10/08 05:05:21;;;;;;;;;;;;;;;14.54;100.00;100458.06;4925159;29;19954;-88
2023/10/08 05:15:35;;;;;;;;;;;;;;;14.46;100.00;100464.09;4921224;29;20371;-85
2023/10/08 05:18:19;;;;;;;;;;;;;;;14.42;100.00;100467.22;4919966;29;19969;-87
2023/10/08 05:20:59;;;;;;;;;;;;;;;14.38;100.00;100463.16;4919779;29;19928;-88
2023/10/08 05:25:58;;;;;;;;;;;;;;;14.30;100.00;100464.69;4924706;29;19958;-88
2023/10/08 05:28:24;;;;;;;;;;;;;;;14.27;100.00;100474.75;4905204;29;20379;-88
2023/10/08 05:30:54;;;;;;;;;;;;;;;14.36;100.00;100473.91;4920369;29;20042;-86
2023/10/08 05:33:49;;;;;;;;;;;;;;;14.42;100.00;100472.50;4924814;29;19923;-88
2023/10/08 05:36:18;;;;;;;;;;;;;;;14.45;100.00;100472.22;4925934;29;19927;-87
2023/10/08 05:39:00;;;;;;;;;;;;;;;14.44;100.00;100476.69;4920585;29;19966;-88
2023/10/08 05:41:38;;;;;;;;;;;;;;;14.43;100.00;100471.53;4909589;29;19962;-88
2023/10/08 05:59:52;;;;;;;;;;;;;;;14.11;100.00;100467.41;4922845;29;19923;-89
2023/10/08 06:13:02;;;;;;;;;;;;;;;14.30;100.00;100493.91;4922839;29;20279;-82
2023/10/08 06:15:44;;;;;;;;;;;;;;;14.36;100.00;100489.84;4924449;29;20074;-82
2023/10/08 06:18:10;;;;;;;;;;;;;;;14.41;100.00;100492.09;4922403;29;19930;-82
2023/10/08 06:20:36;;;;;;;;;;;;;;;14.45;100.00;100498.75;4907439;29;19923;-82
2023/10/08 06:23:06;;;;;;;;;;;;;;;14.51;100.00;100498.19;4926725;29;19945;-83
2023/10/08 06:25:32;;;;;;;;;;;;;;;14.52;100.00;100495.41;4918813;29;19935;-83
2023/10/08 06:27:58;;;;;;;;;;;;;;;14.52;100.00;100502.53;4928209;23;19935;-76
2023/10/08 06:30:28;;;;;;;;;;;;;;;14.52;100.00;100506.03;4868263;29;19928;-77
2023/10/08 06:32:54;;;;;;;;;;;;;;;14.53;100.00;100506.88;4864427;29;19924;-75
2023/10/08 06:35:24;;;;;;;;;;;;;;;14.59;100.00;100507.13;4867857;29;19939;-78
2023/10/08 06:37:54;;;;;;;;;;;;;;;14.59;100.00;100500.97;4866332;29;19988;-77
2023/10/08 06:43:11;;;;;;;;;;;;;;;14.63;100.00;100500.53;4866326;29;20015;-77
2023/10/08 06:45:38;;;;;;;;;;;;;;;14.66;100.00;100507.38;4869938;29;19924;-77
2023/10/08 06:48:06;;;;;;;;;;;;;;;14.73;100.00;100503.13;4870664;29;20366;-77
2023/10/08 06:50:35;;;;;;;;;;;;;;;14.83;100.00;100509.25;4868482;29;19951;-77
2023/10/08 06:53:06;;;;;;;;;;;;;;;14.85;100.00;100512.59;4870327;29;19924;-76
2023/10/08 06:55:33;;;;;;;;;;;;;;;14.89;100.00;100513.16;4868596;29;19967;-76
2023/10/08 06:58:00;;;;;;;;;;;;;;;14.82;100.00;100512.91;4865831;29;19924;-77
2023/10/08 07:00:46;;;;;;;;;;;;;;;14.88;100.00;100517.63;4851973;29;20348;-77
2023/10/08 07:03:14;;;;;;;;;;;;;;;14.95;100.00;100524.03;4866646;29;19992;-77
2023/10/08 07:05:44;;;;;;;;;;;;;;;14.82;100.00;100518.22;4867193;29;19928;-77
2023/10/08 07:08:15;;;;;;;;;;;;;;;14.90;100.00;100522.81;4849218;29;19963;-77
2023/10/08 07:10:42;;;;;;;;;;;;;;;14.94;100.00;100518.84;4869088;29;19930;-77
2023/10/08 07:13:08;;;;;;;;;;;;;;;15.02;100.00;100514.47;4866073;29;20000;-77
2023/10/08 07:15:36;;;;;;;;;;;;;;;15.09;100.00;100515.53;4868020;29;20287;-77
2023/10/08 07:18:09;;;;;;;;;;;;;;;15.18;100.00;100518.31;4848805;29;20323;-75
2023/10/08 07:20:38;;;;;;;;;;;;;;;15.16;100.00;100521.94;4867868;29;19924;-77
2023/10/08 07:23:09;;;;;;;;;;;;;;;15.29;100.00;100520.75;4865908;29;20015;-77
2023/10/08 07:25:37;;;;;;;;;;;;;;;15.22;100.00;100525.84;4849883;29;20010;-77
2023/10/08 07:28:05;;;;;;;;;;;;;;;15.22;100.00;100522.34;4865268;29;20018;-75
2023/10/08 07:30:32;;;;;;;;;;;;;;;15.38;100.00;100533.16;4867753;29;19923;-77
2023/10/08 07:32:58;;;;;;;;;;;;;;;15.47;100.00;100524.28;4864711;29;19920;-78
2023/10/08 07:35:25;;;;;;;;;;;;;;;15.50;100.00;100523.97;4870942;29;19924;-77
2023/10/08 07:37:53;;;;;;;;;;;;;;;15.58;100.00;100521.44;4870077;29;19920;-75
2023/10/08 07:40:20;;;;;;;;;;;;;;;15.69;100.00;100523.88;4865316;29;19924;-76
2023/10/08 07:42:51;;;;;;;;;;;;;;;15.79;100.00;100529.94;4867026;29;19920;-78
2023/10/08 07:45:17;;;;;;;;;;;;;;;15.83;100.00;100531.31;4865250;29;19932;-77
2023/10/08 07:47:43;;;;;;;;;;;;;;;15.94;100.00;100528.41;4866455;29;20005;-77
2023/10/08 07:50:11;;;;;;;;;;;;;;;16.02;100.00;100532.16;4866577;29;19935;-78
2023/10/08 07:52:37;;;;;;;;;;;;;;;16.16;100.00;100518.25;4865439;29;19924;-78
2023/10/08 07:55:04;;;;;;;;;;;;;;;16.23;100.00;100521.97;4867453;29;19931;-78
2023/10/08 07:57:30;;;;;;;;;;;;;;;16.33;100.00;100522.72;4864723;29;19938;-80
2023/10/08 08:00:01;;;;;;;;;;;;;;;16.43;100.00;100518.13;4871187;29;19924;-78
2023/10/08 08:02:27;;;;;;;;;;;;;;;16.52;100.00;100522.50;4870844;29;19924;-78
2023/10/08 08:04:53;;;;;;;;;;;;;;;16.59;100.00;100518.25;4871302;29;19931;-74
2023/10/08 08:07:21;;;;;;;;;;;;;;;16.71;100.00;100516.16;4871858;29;19931;-79
2023/10/08 08:10:23;;;;;;;;;;;;;;;16.81;100.00;100516.03;4872892;29;19924;-78
2023/10/08 08:12:39;;;;;;;;;;;;;;;16.88;100.00;100517.91;4870403;29;19962;-78
2023/10/08 08:15:28;;;;;;;;;;;;;;;16.95;100.00;100518.09;4869203;29;19963;-77
2023/10/08 08:17:50;;;;;;;;;;;;;;;17.04;100.00;100519.78;4870469;29;19931;-77
2023/10/08 08:20:18;;;;;;;;;;;;;;;17.14;100.00;100523.19;4871361;29;20011;-77
2023/10/08 08:22:49;;;;;;;;;;;;;;;17.18;100.00;100517.34;4870214;29;19956;-74
2023/10/08 08:25:33;;;;;;;;;;;;;;;17.25;100.00;100520.22;4872610;29;19970;-75
2023/10/08 08:27:59;;;;;;;;;;;;;;;17.33;100.00;100522.88;4870974;29;19930;-77
2023/10/08 08:30:26;;;;;;;;;;;;;;;17.42;100.00;100513.94;4867651;29;19934;-77
2023/10/08 08:32:51;;;;;;;;;;;;;;;17.49;100.00;100517.63;4873121;29;19921;-76
2023/10/08 08:35:17;;;;;;;;;;;;;;;17.56;100.00;100521.28;4877873;29;19935;-77
2023/10/08 08:37:42;;;;;;;;;;;;;;;17.65;100.00;100516.00;4873359;29;19980;-78
2023/10/08 08:40:17;;;;;;;;;;;;;;;17.72;100.00;100517.00;4872913;29;19919;-79
2023/10/08 08:42:49;;;;;;;;;;;;;;;17.79;100.00;100512.69;4875737;29;19925;-79
2023/10/08 08:45:20;;;;;;;;;;;;;;;17.87;100.00;100510.84;4871932;29;20270;-76
2023/10/08 08:47:45;;;;;;;;;;;;;;;17.93;100.00;100504.00;4873069;29;19924;-77
2023/10/08 08:50:11;;;;;;;;;;;;;;;18.01;100.00;100506.66;4876495;29;19923;-77
2023/10/08 08:52:36;;;;;;;;;;;;;;;18.09;100.00;100514.66;4868373;29;20303;-77
2023/10/08 08:55:06;;;;;;;;;;;;;;;18.17;100.00;100512.00;4871129;29;19930;-78
2023/10/08 08:57:33;;;;;;;;;;;;;;;18.24;100.00;100515.66;4871816;29;20288;-78
2023/10/08 08:59:59;;;;;;;;;;;;;;;18.31;100.00;100508.66;4861524;29;19930;-78
2023/10/08 09:02:24;;;;;;;;;;;;;;;18.40;100.00;100507.63;4866979;29;20386;-78
2023/10/08 09:04:49;;;;;;;;;;;;;;;18.49;100.00;100510.28;4869715;29;19932;-76
2023/10/08 09:07:15;;;;;;;;;;;;;;;18.57;100.00;100502.25;4873367;29;20007;-77
2023/10/08 09:09:41;;;;;;;;;;;;;;;18.65;100.00;100507.59;4870116;29;19928;-77
2023/10/08 09:12:10;;;;;;;;;;;;;;;18.72;100.00;100505.91;4867804;29;19989;-78
2023/10/08 09:14:36;;;;;;;;;;;;;;;18.79;100.00;100506.88;4875831;29;19924;-77
2023/10/08 09:17:05;;;;;;;;;;;;;;;18.86;100.00;100499.81;4870373;29;20420;-77
2023/10/08 09:19:35;;;;;;;;;;;;;;;18.96;100.00;100503.16;4875692;29;19978;-79
2023/10/08 09:22:04;;;;;;;;;;;;;;;19.09;100.00;100495.38;4873138;29;20281;-79
2023/10/08 09:24:39;;;;;;;;;;;;;;;19.25;100.00;100496.31;4866961;29;20305;-79
2023/10/08 09:27:13;;;;;;;;;;;;;;;19.37;100.00;100494.91;4854403;29;19931;-78
2023/10/08 09:29:39;;;;;;;;;;;;;;;19.45;100.00;100493.03;4871791;29;20056;-77
2023/10/08 09:32:05;;;;;;;;;;;;;;;19.55;100.00;100492.81;4851898;29;20002;-77
2023/10/08 09:34:31;;;;;;;;;;;;;;;19.63;100.00;100485.53;4866892;29;19928;-78
2023/10/08 09:36:59;;;;;;;;;;;;;;;19.78;100.00;100488.28;4872346;29;19931;-78
2023/10/08 09:39:26;;;;;;;;;;;;;;;19.88;100.00;100478.16;4871312;29;19987;-78
2023/10/08 09:41:55;;;;;;;;;;;;;;;19.98;100.00;100475.22;4872964;29;20465;-77
2023/10/08 09:44:22;;;;;;;;;;;;;;;20.04;100.00;100477.16;4875139;29;19939;-77
2023/10/08 09:46:50;;;;;;;;;;;;;;;20.17;100.00;100477.38;4871320;29;19976;-75
2023/10/08 09:49:18;;;;;;;;;;;;;;;20.26;100.00;100472.78;4870502;29;20446;-77
2023/10/08 09:51:45;;;;;;;;;;;;;;;20.35;100.00;100479.75;4871737;29;19981;-78
2023/10/08 09:54:13;;;;;;;;;;;;;;;20.40;100.00;100475.50;4876206;29;20432;-76
2023/10/08 09:56:39;;;;;;;;;;;;;;;20.50;100.00;100471.72;4869342;29;19920;-77
2023/10/08 09:59:05;;;;;;;;;;;;;;;20.58;100.00;100474.28;4869008;29;19931;-77
2023/10/08 10:01:33;;;;;;;;;;;;;;;20.65;100.00;100473.38;4866371;29;19985;-77
2023/10/08 10:04:01;;;;;;;;;;;;;;;20.74;100.00;100469.56;4869595;29;19927;-77
2023/10/08 10:06:28;;;;;;;;;;;;;;;20.81;100.00;100470.50;4865582;29;19932;-75
2023/10/08 10:08:57;;;;;;;;;;;;;;;20.87;100.00;100465.41;4872628;29;20426;-77
2023/10/08 10:11:26;;;;;;;;;;;;;;;21.01;100.00;100464.56;4865038;29;19931;-78
2023/10/08 10:13:59;;;;;;;;;;;;;;;21.08;100.00;100460.94;4872811;29;19924;-79
2023/10/08 10:16:26;;;;;;;;;;;;;;;21.17;100.00;100450.94;4872196;29;19928;-77
2023/10/08 10:18:56;;;;;;;;;;;;;;;21.29;100.00;100456.63;4872343;29;19963;-78
2023/10/08 10:21:27;;;;;;;;;;;;;;;21.39;100.00;100457.16;4870058;29;19924;-78
2023/10/08 10:23:53;;;;;;;;;;;;;;;21.49;100.00;100450.47;4871778;29;19928;-75
2023/10/08 10:26:28;;;;;;;;;;;;;;;21.65;100.00;100450.19;4874355;29;19980;-77
2023/10/08 10:29:15;;;;;;;;;;;;;;;21.76;100.00;100442.63;4869007;29;20383;-77
2023/10/08 10:31:44;;;;;;;;;;;;;;;21.86;100.00;100437.75;4866517;29;20292;-77
2023/10/08 10:34:11;;;;;;;;;;;;;;;21.86;100.00;100433.22;4867518;29;19934;-77
2023/10/08 10:36:40;;;;;;;;;;;;;;;21.86;100.00;100430.53;4871886;29;19924;-77
2023/10/08 10:39:16;;;;;;;;;;;;;;;21.88;100.00;100435.72;4866464;29;19935;-77
2023/10/08 10:41:48;;;;;;;;;;;;;;;21.97;100.00;100437.28;4868991;29;19935;-77
2023/10/08 10:44:14;;;;;;;;;;;;;;;22.00;100.00;100429.63;4867840;29;20015;-77
2023/10/08 10:46:41;;;;;;;;;;;;;;;22.10;100.00;100428.44;4871483;29;19931;-77
2023/10/08 10:49:17;;;;;;;;;;;;;;;22.20;100.00;100424.41;4866237;29;19931;-77
2023/10/08 10:51:43;;;;;;;;;;;;;;;22.28;100.00;100418.84;4874021;29;19927;-76
2023/10/08 10:54:19;;;;;;;;;;;;;;;22.32;100.00;100405.88;4869949;29;19979;-77
2023/10/08 10:56:47;;;;;;;;;;;;;;;22.40;100.00;100414.59;4867263;29;19931;-77
2023/10/08 10:59:18;;;;;;;;;;;;;;;22.58;100.00;100405.16;4866534;29;19988;-77
2023/10/08 11:01:52;;;;;;;;;;;;;;;22.73;100.00;100403.22;4866778;29;19979;-78
2023/10/08 11:04:19;;;;;;;;;;;;;;;22.91;100.00;100403.47;4853453;29;19974;-75
2023/10/08 11:06:47;;;;;;;;;;;;;;;22.95;100.00;100393.97;4868815;29;19932;-78
2023/10/08 11:09:15;;;;;;;;;;;;;;;23.07;100.00;100397.72;4868794;29;19980;-77
2023/10/08 11:11:43;;;;;;;;;;;;;;;23.16;100.00;100388.41;4866731;29;20300;-77
2023/10/08 11:14:15;;;;;;;;;;;;;;;23.30;100.00;100380.34;4868329;29;19924;-76
2023/10/08 11:16:43;;;;;;;;;;;;;;;23.43;100.00;100383.06;4871280;29;20292;-78
2023/10/08 11:19:09;;;;;;;;;;;;;;;23.69;100.00;100377.72;4866386;29;19924;-77
2023/10/08 11:21:48;;;;;;;;;;;;;;;23.80;100.00;100369.00;4872552;29;19931;-78
2023/10/08 11:24:24;;;;;;;;;;;;;;;23.99;99.57;100373.53;4866738;29;19924;-77
2023/10/08 11:27:01;;;;;;;;;;;;;;;24.27;85.89;100364.41;4865886;29;19936;-77
2023/10/08 11:29:26;;;;;;;;;;;;;;;24.53;83.58;100364.28;4866978;29;20000;-76
2023/10/08 11:31:53;;;;;;;;;;;;;;;24.73;85.78;100361.50;4865634;29;19977;-77
2023/10/08 11:34:23;;;;;;;;;;;;;;;24.85;85.10;100359.78;4877050;29;20411;-77
2023/10/08 11:36:53;;;;;;;;;;;;;;;25.05;81.97;100356.97;4877680;29;19924;-77
2023/10/08 11:39:21;;;;;;;;;;;;;;;25.40;79.09;100344.69;4871883;29;20338;-77
2023/10/08 11:42:03;;;;;;;;;;;;;;;25.48;79.84;100352.53;4878426;29;19924;-76
2023/10/08 11:44:30;;;;;;;;;;;;;;;25.61;80.35;100347.03;4870055;29;19947;-76
2023/10/08 11:47:00;;;;;;;;;;;;;;;25.72;83.15;100348.19;4871052;29;19959;-77
2023/10/08 11:49:26;;;;;;;;;;;;;;;25.88;81.71;100344.06;4875596;29;20387;-77
2023/10/08 11:51:55;;;;;;;;;;;;;;;26.01;81.89;100341.25;4871737;29;20018;-77
2023/10/08 11:54:23;;;;;;;;;;;;;;;26.16;82.70;100338.97;4873626;29;20019;-78
2023/10/08 11:56:48;;;;;;;;;;;;;;;26.27;81.09;100327.44;4872316;29;20385;-77
2023/10/08 11:59:14;;;;;;;;;;;;;;;26.42;79.87;100327.91;4872280;29;19924;-78
2023/10/08 12:01:42;;;;;;;;;;;;;;;26.64;71.21;100327.41;4876352;29;19934;-78
2023/10/08 12:04:15;;;;;;;;;;;;;;;26.77;69.12;100324.50;4874017;29;19931;-77
2023/10/08 12:06:46;;;;;;;;;;;;;;;26.83;72.04;100323.59;4881967;29;19927;-77
2023/10/08 12:09:12;;;;;;;;;;;;;;;26.93;71.58;100312.22;4874169;29;20386;-77
2023/10/08 12:11:39;;;;;;;;;;;;;;;27.01;73.49;100310.03;4882528;29;20038;-77
2023/10/08 12:14:05;;;;;;;;;;;;;;;27.15;73.90;100306.06;4876205;29;20010;-77
2023/10/08 12:16:35;;;;;;;;;;;;;;;27.29;72.04;100291.22;4875194;29;20342;-77
2023/10/08 12:19:00;;;;;;;;;;;;;;;27.40;73.50;100295.00;4877874;29;19938;-78
2023/10/08 12:21:26;;;;;;;;;;;;;;;27.57;70.48;100292.44;4877865;29;20299;-77
2023/10/08 12:23:52;;;;;;;;;;;;;;;27.71;71.90;100283.03;4877931;29;19924;-78
2023/10/08 12:26:20;;;;;;;;;;;;;;;27.84;71.88;100282.78;4875588;29;20000;-78
2023/10/08 12:28:48;;;;;;;;;;;;;;;27.97;71.98;100277.09;4861358;29;19924;-76
2023/10/08 12:31:15;;;;;;;;;;;;;;;28.11;68.71;100277.66;4875815;29;20005;-77
2023/10/08 12:33:41;;;;;;;;;;;;;;;28.24;67.02;100276.59;4874765;29;19928;-77
2023/10/08 12:36:12;;;;;;;;;;;;;;;28.39;66.88;100276.91;4881516;29;19930;-77
2023/10/08 12:38:41;;;;;;;;;;;;;;;28.55;66.38;100269.88;4875592;29;19971;-77
2023/10/08 12:41:12;;;;;;;;;;;;;;;28.69;64.74;100265.75;4877340;29;20022;-77
2023/10/08 12:43:52;;;;;;;;;;;;;;;28.83;64.24;100264.44;4877352;29;19971;-77
2023/10/08 12:46:18;;;;;;;;;;;;;;;28.97;64.16;100260.34;4874400;29;19924;-77
2023/10/08 12:48:44;;;;;;;;;;;;;;;29.10;62.81;100260.00;4868960;29;19930;-77
2023/10/08 12:51:11;;;;;;;;;;;;;;;29.22;60.65;100251.75;4874511;29;19927;-77
2023/10/08 12:53:37;;;;;;;;;;;;;;;29.32;61.87;100257.38;4870970;29;19924;-77
2023/10/08 12:56:06;;;;;;;;;;;;;;;29.40;60.43;100248.81;4874797;29;20396;-78
2023/10/08 12:58:38;;;;;;;;;;;;;;;29.49;60.44;100246.50;4870741;29;19963;-77
2023/10/08 13:01:03;;;;;;;;;;;;;;;29.60;59.24;100248.31;4870023;29;19928;-78
2023/10/08 13:03:33;;;;;;;;;;;;;;;29.73;58.24;100244.41;4866863;29;19981;-79
2023/10/08 13:06:05;;;;;;;;;;;;;;;29.81;57.45;100246.69;4869841;29;19931;-78
2023/10/08 13:08:31;;;;;;;;;;;;;;;29.89;56.51;100246.25;4867496;29;19955;-78
2023/10/08 13:11:00;;;;;;;;;;;;;;;29.97;57.26;100243.13;4875595;29;20293;-78
2023/10/08 13:13:26;;;;;;;;;;;;;;;30.05;57.85;100243.47;4867760;29;19928;-78
2023/10/08 13:15:55;;;;;;;;;;;;;;;30.11;57.42;100241.66;4875483;29;19934;-79
2023/10/08 13:18:21;;;;;;;;;;;;;;;30.20;55.25;100237.41;4873118;29;19932;-78
2023/10/08 13:20:47;;;;;;;;;;;;;;;30.27;55.14;100229.88;4872335;29;19924;-78
2023/10/08 13:23:12;;;;;;;;;;;;;;;30.35;55.31;100234.84;4871440;29;19928;-78
2023/10/08 13:25:39;;;;;;;;;;;;;;;30.42;56.10;100219.13;4870636;29;19924;-78
2023/10/08 13:28:07;;;;;;;;;;;;;;;30.51;54.08;100216.81;4866906;29;20373;-79